Airport View

Enter AWOS ICAO identifier for current METAR.

ex. KFNL

KCAD 212337Z AUTO 21010G16KT 10SM BKN009 OVC014 22/20 A3000 RMK AO2 T02220206

21 Sep 2019 23:45

Frequency: 128.325

Phone: 231-779-9536

Other Area AWOS: KTVC - KHTL - KRQB - KMBL

KTVC 211720Z 2118/2218 20012KT P6SM SCT050 FM212100 21013G21KT P6SM VCSH BKN070 FM220100 20014G22KT 6SM -SHRA BR OVC050 FM220700 21013KT 6SM -SHRA BR OVC019 FM221400 22010G23KT 4SM SHRA BR OVC009